createdAt,value
2023-01-17T00:00:01.318Z,4.03
2023-01-17T00:02:32.446Z,3.99
2023-01-17T00:05:19.845Z,4.36
2023-01-17T00:08:08.238Z,4.86
2023-01-17T00:10:42.912Z,4.84
2023-01-17T00:13:15.916Z,4.48
2023-01-17T00:15:47.387Z,4.42
2023-01-17T00:18:18.048Z,4.82
2023-01-17T00:21:05.103Z,4.23
2023-01-17T00:23:52.640Z,4.61
2023-01-17T00:26:24.643Z,4.93
2023-01-17T00:28:53.404Z,4.93
2023-01-17T00:31:23.217Z,4.87
2023-01-17T00:33:52.153Z,4.89
2023-01-17T00:36:20.953Z,4.67
2023-01-17T00:38:49.345Z,4.89
2023-01-17T00:41:17.935Z,4.71
2023-01-17T00:44:05.058Z,4.73
2023-01-17T00:46:53.735Z,4.83
2023-01-17T00:49:41.547Z,4.63
2023-01-17T00:52:29.783Z,4.36
2023-01-17T00:55:17.493Z,4.46
2023-01-17T00:58:05.651Z,4.71
2023-01-17T01:00:53.199Z,4.57
2023-01-17T01:03:42.467Z,4.23
2023-01-17T01:06:31.088Z,4.14
2023-01-17T01:09:18.123Z,4.16
2023-01-17T01:12:05.664Z,4.22
2023-01-17T01:14:53.220Z,4.25
2023-01-17T01:17:40.660Z,4.44
2023-01-17T01:20:30.911Z,4.96
2023-01-17T01:23:17.674Z,5.08
2023-01-17T01:26:04.963Z,5.14
2023-01-17T01:28:52.102Z,4.90
2023-01-17T01:31:39.599Z,5.04
2023-01-17T01:34:09.133Z,4.93
2023-01-17T01:36:40.779Z,5.12
2023-01-17T01:39:11.167Z,5.15
2023-01-17T01:41:41.842Z,4.95
2023-01-17T01:44:45.665Z,5.10
2023-01-17T01:47:20.194Z,4.92
2023-01-17T01:49:50.902Z,5.07
2023-01-17T01:52:24.411Z,5.24
2023-01-17T01:54:55.789Z,4.48
2023-01-17T01:57:28.619Z,4.15
2023-01-17T02:00:02.834Z,4.43
2023-01-17T02:02:35.104Z,3.71
2023-01-17T02:05:05.276Z,3.31
2023-01-17T02:07:42.359Z,3.81
2023-01-17T02:10:12.928Z,3.45
2023-01-17T02:12:43.432Z,3.39
2023-01-17T02:15:14.197Z,3.79
2023-01-17T02:17:51.027Z,2.82
2023-01-17T02:20:53.448Z,3.94
2023-01-17T02:23:56.661Z,3.85
2023-01-17T02:26:55.025Z,4.15
2023-01-17T02:29:51.335Z,4.28
2023-01-17T02:32:30.490Z,4.51
2023-01-17T02:35:05.690Z,4.06
2023-01-17T02:37:42.704Z,4.03
2023-01-17T02:40:16.372Z,4.39
2023-01-17T02:42:52.297Z,4.65
2023-01-17T02:45:23.677Z,4.66
2023-01-17T02:47:55.172Z,4.50
2023-01-17T02:50:27.789Z,4.29
2023-01-17T02:53:12.452Z,4.33
2023-01-17T02:55:53.654Z,3.96
2023-01-17T02:58:41.803Z,4.18
2023-01-17T03:01:19.728Z,4.31
2023-01-17T03:03:55.824Z,4.20
2023-01-17T03:06:29.607Z,4.69
2023-01-17T03:08:59.784Z,4.22
2023-01-17T03:11:29.652Z,4.10
2023-01-17T03:13:59.838Z,3.95
2023-01-17T03:16:33.486Z,4.26
2023-01-17T03:19:05.008Z,4.11
2023-01-17T03:21:34.759Z,3.95
2023-01-17T03:24:08.255Z,4.26
2023-01-17T03:26:38.417Z,4.42
2023-01-17T03:29:08.196Z,4.24
2023-01-17T03:31:39.047Z,3.80
2023-01-17T03:34:11.230Z,3.91
2023-01-17T03:36:41.733Z,4.47
2023-01-17T03:39:11.888Z,4.34
2023-01-17T03:41:41.849Z,4.26
2023-01-17T03:44:12.190Z,4.35
2023-01-17T03:46:42.078Z,4.62
2023-01-17T03:49:14.118Z,4.57
2023-01-17T03:51:44.475Z,3.79
2023-01-17T03:54:14.135Z,4.00
2023-01-17T03:56:44.125Z,4.31
2023-01-17T03:59:13.758Z,4.02
2023-01-17T04:01:43.893Z,4.13
2023-01-17T04:04:15.757Z,4.22
2023-01-17T04:06:45.709Z,4.09
2023-01-17T04:09:16.376Z,3.84
2023-01-17T04:11:51.267Z,3.22
2023-01-17T04:14:21.282Z,3.31
2023-01-17T04:16:52.199Z,3.31
2023-01-17T04:19:23.600Z,3.49
2023-01-17T04:21:53.879Z,3.75
2023-01-17T04:24:23.419Z,3.34
2023-01-17T04:26:53.664Z,3.58
2023-01-17T04:29:23.603Z,3.85
2023-01-17T04:31:54.176Z,4.12
2023-01-17T04:34:26.786Z,3.97
2023-01-17T04:36:56.649Z,3.94
2023-01-17T04:39:26.579Z,3.67
2023-01-17T04:41:56.484Z,4.22
2023-01-17T04:44:27.352Z,3.47
2023-01-17T04:46:57.687Z,4.05
2023-01-17T04:49:28.873Z,4.09
2023-01-17T04:51:58.337Z,3.99
2023-01-17T04:54:29.229Z,3.83
2023-01-17T04:56:59.932Z,4.24
2023-01-17T04:59:30.278Z,4.32
2023-01-17T05:02:00.345Z,3.95
2023-01-17T05:04:31.951Z,3.88
2023-01-17T05:07:02.056Z,2.89
2023-01-17T05:09:32.229Z,2.82
2023-01-17T05:12:01.665Z,2.97
2023-01-17T05:14:32.255Z,3.16
2023-01-17T05:17:04.833Z,3.16
2023-01-17T05:19:36.786Z,3.49
2023-01-17T05:22:15.371Z,3.33
2023-01-17T05:24:46.670Z,3.31
2023-01-17T05:27:17.352Z,2.78
2023-01-17T05:29:49.397Z,3.03
2023-01-17T05:32:20.082Z,3.44
2023-01-17T05:34:52.262Z,3.70
2023-01-17T05:37:22.312Z,3.69
2023-01-17T05:39:52.343Z,4.00
2023-01-17T05:42:23.091Z,3.41
2023-01-17T05:44:53.387Z,3.37
2023-01-17T05:47:23.366Z,4.02
2023-01-17T05:49:55.012Z,4.00
2023-01-17T05:52:25.353Z,3.73
2023-01-17T05:54:55.050Z,3.82
2023-01-17T05:57:26.576Z,4.26
2023-01-17T05:59:56.301Z,4.32
2023-01-17T06:02:26.813Z,4.18
2023-01-17T06:04:58.861Z,4.68
2023-01-17T06:07:29.748Z,4.20
2023-01-17T06:10:00.338Z,3.87
2023-01-17T06:12:29.922Z,3.52
2023-01-17T06:15:00.130Z,4.07
2023-01-17T06:17:30.734Z,3.97
2023-01-17T06:20:02.271Z,4.18
2023-01-17T06:22:33.173Z,3.91
2023-01-17T06:25:03.859Z,3.79
2023-01-17T06:27:34.140Z,3.83
2023-01-17T06:30:05.493Z,3.69
2023-01-17T06:32:35.639Z,3.87
2023-01-17T06:35:07.558Z,4.01
2023-01-17T06:37:37.851Z,3.92
2023-01-17T06:40:09.753Z,3.98
2023-01-17T06:42:40.076Z,4.18
2023-01-17T06:45:11.032Z,4.36
2023-01-17T06:47:41.945Z,4.10
2023-01-17T06:50:16.928Z,3.77
2023-01-17T06:52:58.656Z,3.72
2023-01-17T06:55:30.623Z,4.33
2023-01-17T06:58:03.245Z,4.31
2023-01-17T07:00:37.597Z,4.47
2023-01-17T07:03:13.640Z,4.15
2023-01-17T07:05:45.571Z,4.11
2023-01-17T07:08:17.137Z,3.96
2023-01-17T07:10:47.830Z,4.58
2023-01-17T07:13:18.120Z,4.62
2023-01-17T07:15:48.607Z,4.65
2023-01-17T07:18:23.391Z,4.65
2023-01-17T07:20:56.220Z,4.74
2023-01-17T07:23:26.672Z,4.64
2023-01-17T07:25:58.031Z,4.53
2023-01-17T07:28:29.928Z,4.19
2023-01-17T07:30:59.983Z,4.12
2023-01-17T07:33:29.790Z,4.20
2023-01-17T07:36:00.955Z,4.63
2023-01-17T07:38:31.529Z,4.30
2023-01-17T07:41:01.961Z,4.31
2023-01-17T07:43:32.444Z,4.43
2023-01-17T07:46:02.314Z,4.12
2023-01-17T07:48:33.309Z,4.03
2023-01-17T07:51:05.506Z,4.16
2023-01-17T07:53:36.142Z,4.31
2023-01-17T07:56:07.948Z,3.87
2023-01-17T07:58:38.264Z,4.27
2023-01-17T08:01:09.614Z,4.33
2023-01-17T08:03:42.143Z,4.68
2023-01-17T08:06:19.359Z,4.51
2023-01-17T08:08:49.862Z,4.54
2023-01-17T08:11:19.947Z,4.58
2023-01-17T08:13:50.297Z,4.67
2023-01-17T08:16:20.829Z,4.66
2023-01-17T08:18:51.209Z,4.61
2023-01-17T08:21:23.171Z,5.14
2023-01-17T08:23:53.954Z,4.66
2023-01-17T08:26:25.562Z,4.61
2023-01-17T08:29:01.148Z,4.81
2023-01-17T08:31:35.646Z,4.81
2023-01-17T08:34:09.842Z,4.47
2023-01-17T08:36:43.512Z,4.76
2023-01-17T08:39:14.487Z,4.74
2023-01-17T08:41:44.654Z,4.93
2023-01-17T08:44:16.080Z,4.62
2023-01-17T08:46:45.949Z,4.82
2023-01-17T08:49:16.102Z,4.79
2023-01-17T08:51:47.712Z,4.60
2023-01-17T08:54:18.064Z,4.93
2023-01-17T08:56:48.626Z,4.75
2023-01-17T08:59:18.772Z,4.94
2023-01-17T09:01:49.556Z,4.76
2023-01-17T09:04:20.011Z,5.32
2023-01-17T09:06:53.137Z,5.02
2023-01-17T09:09:23.289Z,4.95
2023-01-17T09:11:54.697Z,4.86
2023-01-17T09:14:25.165Z,4.68
2023-01-17T09:16:55.648Z,4.60
2023-01-17T09:19:25.823Z,4.64
2023-01-17T09:21:58.441Z,5.33
2023-01-17T09:24:28.882Z,4.84
2023-01-17T09:26:59.632Z,4.94
2023-01-17T09:29:29.898Z,5.08
2023-01-17T09:32:01.041Z,5.28
2023-01-17T09:34:32.477Z,5.49
2023-01-17T09:37:04.437Z,5.34
2023-01-17T09:39:34.820Z,5.24
2023-01-17T09:42:18.364Z,5.34
2023-01-17T09:44:52.040Z,5.40
2023-01-17T09:47:35.243Z,5.51
2023-01-17T09:50:31.146Z,5.64
2023-01-17T09:53:08.315Z,5.57
2023-01-17T09:55:45.782Z,5.67
2023-01-17T09:58:19.606Z,5.44
2023-01-17T10:00:58.541Z,5.64
2023-01-17T10:03:44.859Z,5.57
2023-01-17T10:06:36.329Z,5.46
2023-01-17T10:09:41.203Z,5.54
2023-01-17T10:12:23.719Z,5.61
2023-01-17T10:15:07.683Z,5.62
2023-01-17T10:17:46.196Z,5.86
2023-01-17T10:20:38.252Z,5.84
2023-01-17T10:23:31.173Z,5.83
2023-01-17T10:26:07.545Z,5.81
2023-01-17T10:28:42.900Z,5.47
2023-01-17T10:31:16.042Z,6.01
2023-01-17T10:33:50.802Z,5.87
2023-01-17T10:36:24.005Z,5.91
2023-01-17T10:38:55.195Z,5.86
2023-01-17T10:41:30.028Z,5.87
2023-01-17T10:44:07.246Z,5.96
2023-01-17T10:46:41.248Z,5.80
2023-01-17T10:49:17.668Z,5.84
2023-01-17T10:52:16.973Z,6.12
2023-01-17T10:55:04.322Z,6.03
2023-01-17T10:57:41.421Z,6.05
2023-01-17T11:00:32.882Z,5.94
2023-01-17T11:03:04.015Z,5.83
2023-01-17T11:05:35.688Z,5.84
2023-01-17T11:08:07.249Z,5.70
2023-01-17T11:10:41.243Z,5.69
2023-01-17T11:13:27.659Z,5.49
2023-01-17T11:16:01.323Z,5.90
2023-01-17T11:18:34.366Z,5.98
2023-01-17T11:21:15.284Z,5.91
2023-01-17T11:23:46.635Z,5.86
2023-01-17T11:26:26.886Z,5.52
2023-01-17T11:29:16.422Z,5.35
2023-01-17T11:31:46.586Z,5.32
2023-01-17T11:34:19.169Z,5.55
2023-01-17T11:36:50.455Z,5.27
2023-01-17T11:39:29.078Z,5.15
2023-01-17T11:41:59.726Z,5.91
2023-01-17T11:44:34.062Z,5.91
2023-01-17T11:47:16.115Z,5.95
2023-01-17T11:49:47.972Z,5.95
2023-01-17T11:52:25.113Z,5.51
2023-01-17T11:54:56.712Z,5.13
2023-01-17T11:57:28.302Z,5.28
2023-01-17T12:00:06.062Z,5.34
2023-01-17T12:02:48.950Z,5.77
2023-01-17T12:05:41.054Z,5.41
2023-01-17T12:08:19.735Z,5.19
2023-01-17T12:10:56.113Z,5.51
2023-01-17T12:13:51.605Z,5.80
2023-01-17T12:16:32.464Z,5.88
2023-01-17T12:19:19.414Z,5.64
2023-01-17T12:22:01.781Z,5.41
2023-01-17T12:25:05.105Z,5.87
2023-01-17T12:27:44.135Z,5.86
2023-01-17T12:30:32.838Z,5.40
2023-01-17T12:33:28.239Z,5.31
2023-01-17T12:36:02.406Z,5.41
2023-01-17T12:38:42.224Z,5.75
2023-01-17T12:41:18.558Z,5.72
2023-01-17T12:43:50.734Z,5.24
2023-01-17T12:46:27.742Z,5.58
2023-01-17T12:49:05.168Z,5.84
2023-01-17T12:51:41.479Z,5.78
2023-01-17T12:54:18.505Z,5.81
2023-01-17T12:56:53.703Z,5.68
2023-01-17T12:59:30.643Z,5.84
2023-01-17T13:02:02.347Z,5.91
2023-01-17T13:04:46.897Z,6.03
2023-01-17T13:07:34.877Z,5.75
2023-01-17T13:10:13.527Z,5.69
2023-01-17T13:12:44.712Z,5.88
2023-01-17T13:15:19.280Z,5.74
2023-01-17T13:17:53.648Z,5.66
2023-01-17T13:20:32.062Z,5.69
2023-01-17T13:23:09.195Z,6.03
2023-01-17T13:25:46.480Z,5.74
2023-01-17T13:28:29.866Z,5.53
2023-01-17T13:31:19.374Z,5.63
2023-01-17T13:34:13.441Z,5.61
2023-01-17T13:37:01.744Z,6.03
2023-01-17T13:39:46.525Z,6.06
2023-01-17T13:42:25.568Z,5.74
2023-01-17T13:44:56.555Z,6.00
2023-01-17T13:47:50.835Z,6.17
2023-01-17T13:50:48.787Z,6.07
2023-01-17T13:53:59.023Z,6.00
2023-01-17T13:56:36.177Z,6.16
2023-01-17T13:59:31.599Z,5.97
2023-01-17T14:02:01.727Z,6.21
2023-01-17T14:05:08.907Z,5.94
2023-01-17T14:07:46.254Z,6.20
2023-01-17T14:10:35.635Z,5.89
2023-01-17T14:13:26.831Z,5.99
2023-01-17T14:15:57.985Z,5.91
2023-01-17T14:18:34.432Z,5.88
2023-01-17T14:21:11.093Z,6.22
2023-01-17T14:24:00.946Z,6.29
2023-01-17T14:26:47.889Z,6.14
2023-01-17T14:29:54.032Z,5.88
2023-01-17T14:32:26.057Z,5.97
2023-01-17T14:34:57.739Z,6.09
2023-01-17T14:37:38.781Z,6.25
2023-01-17T14:40:21.402Z,6.12
2023-01-17T14:42:58.047Z,6.11
2023-01-17T14:45:32.440Z,5.94
2023-01-17T14:48:05.145Z,6.22
2023-01-17T14:50:39.863Z,6.04
2023-01-17T14:53:18.964Z,6.24
2023-01-17T14:55:55.277Z,6.06
2023-01-17T14:58:27.819Z,6.18
2023-01-17T15:01:03.390Z,6.04
2023-01-17T15:03:36.824Z,6.25
2023-01-17T15:06:13.660Z,5.98
2023-01-17T15:08:43.896Z,6.10
2023-01-17T15:11:21.578Z,6.08
2023-01-17T15:13:55.433Z,6.37
2023-01-17T15:16:28.702Z,6.28
2023-01-17T15:19:01.584Z,6.03
2023-01-17T15:21:33.845Z,6.03
2023-01-17T15:24:08.731Z,6.17
2023-01-17T15:26:43.555Z,6.09
2023-01-17T15:29:18.844Z,6.09
2023-01-17T15:31:51.678Z,6.17
2023-01-17T15:34:30.013Z,5.97
2023-01-17T15:37:01.626Z,6.08
2023-01-17T15:39:34.032Z,6.28
2023-01-17T15:42:08.483Z,5.82
2023-01-17T15:44:48.651Z,5.50
2023-01-17T15:47:38.107Z,5.71
2023-01-17T15:50:31.874Z,5.08
2023-01-17T15:53:05.222Z,5.16
2023-01-17T15:55:36.959Z,5.23
2023-01-17T15:58:22.951Z,5.60
2023-01-17T16:00:53.045Z,5.63
2023-01-17T16:03:27.727Z,5.61
2023-01-17T16:06:00.734Z,5.45
2023-01-17T16:08:40.157Z,5.59
2023-01-17T16:11:16.048Z,5.33
2023-01-17T16:13:47.821Z,5.55
2023-01-17T16:16:23.655Z,5.72
2023-01-17T16:19:02.065Z,5.60
2023-01-17T16:21:32.950Z,5.48
2023-01-17T16:24:03.375Z,5.73
2023-01-17T16:26:33.235Z,5.54
2023-01-17T16:29:02.826Z,5.52
2023-01-17T16:31:34.000Z,5.54
2023-01-17T16:34:10.412Z,5.71
2023-01-17T16:36:41.041Z,5.87
2023-01-17T16:39:12.766Z,5.40
2023-01-17T16:41:43.248Z,5.67
2023-01-17T16:44:13.143Z,5.44
2023-01-17T16:46:43.302Z,5.54
2023-01-17T16:49:14.272Z,5.93
2023-01-17T16:51:44.463Z,5.43
2023-01-17T16:54:15.124Z,5.75
2023-01-17T16:56:45.431Z,5.53
2023-01-17T16:59:15.413Z,5.24
2023-01-17T17:01:45.486Z,5.30
2023-01-17T17:04:18.610Z,5.49
2023-01-17T17:06:49.201Z,5.51
2023-01-17T17:09:21.577Z,5.46
2023-01-17T17:11:52.518Z,5.31
2023-01-17T17:14:22.867Z,5.29
2023-01-17T17:16:53.805Z,5.23
2023-01-17T17:19:29.477Z,5.23
2023-01-17T17:22:01.823Z,5.55
2023-01-17T17:24:33.177Z,5.75
2023-01-17T17:27:04.112Z,5.64
2023-01-17T17:29:34.644Z,5.19
2023-01-17T17:32:07.292Z,4.80
2023-01-17T17:34:40.377Z,4.78
2023-01-17T17:37:11.533Z,4.81
2023-01-17T17:39:43.205Z,5.45
2023-01-17T17:42:14.880Z,5.39
2023-01-17T17:44:45.771Z,5.58
2023-01-17T17:47:16.764Z,5.18
2023-01-17T17:49:48.908Z,4.84
2023-01-17T17:52:20.763Z,4.82
2023-01-17T17:54:50.884Z,4.93
2023-01-17T17:57:20.954Z,5.09
2023-01-17T17:59:51.297Z,4.73
2023-01-17T18:02:22.916Z,4.74
2023-01-17T18:04:55.716Z,4.64
2023-01-17T18:07:25.417Z,4.56
2023-01-17T18:09:55.461Z,4.87
2023-01-17T18:12:25.192Z,4.94
2023-01-17T18:14:55.973Z,4.91
2023-01-17T18:17:26.220Z,5.08
2023-01-17T18:19:58.233Z,4.99
2023-01-17T18:22:29.172Z,4.82
2023-01-17T18:25:00.131Z,4.70
2023-01-17T18:27:31.660Z,4.55
2023-01-17T18:30:02.093Z,4.70
2023-01-17T18:32:33.357Z,4.89
2023-01-17T18:35:05.766Z,4.50
2023-01-17T18:37:36.494Z,4.61
2023-01-17T18:40:08.519Z,4.61
2023-01-17T18:42:39.332Z,4.90
2023-01-17T18:45:10.519Z,4.79
2023-01-17T18:47:40.335Z,4.62
2023-01-17T18:50:13.438Z,4.80
2023-01-17T18:52:44.159Z,4.79
2023-01-17T18:55:14.601Z,4.98
2023-01-17T18:57:44.901Z,5.37
2023-01-17T19:00:16.481Z,5.06
2023-01-17T19:02:47.501Z,4.40
2023-01-17T19:05:21.956Z,4.70
2023-01-17T19:07:53.075Z,4.41
2023-01-17T19:10:23.799Z,4.31
2023-01-17T19:12:53.814Z,4.58
2023-01-17T19:15:23.868Z,4.91
2023-01-17T19:17:54.859Z,4.94
2023-01-17T19:20:26.237Z,4.62
2023-01-17T19:22:56.242Z,4.91
2023-01-17T19:25:27.350Z,4.99
2023-01-17T19:27:58.404Z,4.66
2023-01-17T19:30:28.725Z,4.60
2023-01-17T19:32:59.183Z,4.61
2023-01-17T19:35:30.534Z,4.72
2023-01-17T19:38:00.833Z,4.31
2023-01-17T19:40:31.637Z,4.45
2023-01-17T19:43:01.565Z,4.74
2023-01-17T19:45:31.592Z,4.57
2023-01-17T19:48:01.679Z,4.23
2023-01-17T19:50:33.898Z,4.40
2023-01-17T19:53:04.491Z,4.34
2023-01-17T19:55:35.937Z,4.45
2023-01-17T19:58:06.453Z,4.70
2023-01-17T20:00:46.006Z,4.66
2023-01-17T20:03:17.256Z,4.69
2023-01-17T20:05:59.143Z,4.69
2023-01-17T20:08:29.592Z,4.64
2023-01-17T20:11:03.982Z,4.72
2023-01-17T20:13:34.203Z,4.84
2023-01-17T20:16:04.589Z,5.29
2023-01-17T20:18:36.003Z,4.89
2023-01-17T20:21:09.757Z,4.79
2023-01-17T20:23:42.644Z,4.81
2023-01-17T20:26:14.101Z,5.09
2023-01-17T20:28:45.952Z,5.18
2023-01-17T20:31:17.954Z,5.04
2023-01-17T20:33:50.976Z,4.69
2023-01-17T20:36:26.002Z,4.97
2023-01-17T20:38:59.454Z,4.49
2023-01-17T20:41:33.869Z,4.78
2023-01-17T20:44:05.289Z,4.70
2023-01-17T20:46:40.632Z,4.74
2023-01-17T20:49:15.778Z,4.63
2023-01-17T20:51:49.190Z,4.68
2023-01-17T20:54:20.803Z,4.26
2023-01-17T20:56:52.861Z,4.74
2023-01-17T20:59:24.942Z,4.76
2023-01-17T21:01:55.458Z,4.64
2023-01-17T21:04:26.989Z,5.41
2023-01-17T21:06:59.053Z,5.50
2023-01-17T21:09:29.909Z,5.48
2023-01-17T21:12:01.839Z,5.31
2023-01-17T21:14:32.904Z,5.36
2023-01-17T21:17:03.545Z,5.39
2023-01-17T21:19:34.334Z,5.03
2023-01-17T21:22:06.867Z,5.11
2023-01-17T21:24:37.242Z,5.06
2023-01-17T21:27:09.483Z,5.33
2023-01-17T21:29:40.272Z,5.13
2023-01-17T21:32:10.922Z,4.53
2023-01-17T21:34:41.567Z,4.54
2023-01-17T21:37:13.471Z,4.62
2023-01-17T21:39:43.714Z,4.88
2023-01-17T21:42:14.318Z,4.98
2023-01-17T21:44:45.938Z,5.43
2023-01-17T21:47:16.507Z,5.56
2023-01-17T21:49:46.922Z,5.52
2023-01-17T21:52:22.607Z,4.97
2023-01-17T21:55:09.952Z,4.92
2023-01-17T21:57:57.716Z,5.11
2023-01-17T22:00:28.890Z,5.30
2023-01-17T22:02:59.099Z,5.49
2023-01-17T22:05:29.075Z,5.26
2023-01-17T22:08:15.002Z,5.21
2023-01-17T22:10:48.923Z,5.35
2023-01-17T22:13:21.131Z,5.40
2023-01-17T22:16:01.127Z,5.20
2023-01-17T22:18:31.150Z,5.06
2023-01-17T22:21:05.058Z,5.11
2023-01-17T22:23:37.391Z,5.00
2023-01-17T22:26:09.575Z,5.38
2023-01-17T22:28:40.798Z,5.66
2023-01-17T22:31:13.239Z,5.44
2023-01-17T22:33:46.017Z,5.17
2023-01-17T22:36:17.655Z,5.33
2023-01-17T22:38:51.214Z,5.00
2023-01-17T22:41:23.575Z,5.15
2023-01-17T22:43:58.304Z,5.27
2023-01-17T22:46:31.690Z,5.10
2023-01-17T22:49:03.757Z,5.27
2023-01-17T22:51:35.727Z,5.20
2023-01-17T22:54:08.121Z,5.27
2023-01-17T22:56:38.697Z,5.00
2023-01-17T22:59:12.176Z,4.99
2023-01-17T23:01:43.563Z,5.04
2023-01-17T23:04:16.430Z,5.22
2023-01-17T23:06:47.682Z,5.23
2023-01-17T23:09:21.939Z,5.18
2023-01-17T23:11:54.891Z,5.45
2023-01-17T23:14:28.455Z,5.15
2023-01-17T23:17:18.373Z,5.11
2023-01-17T23:19:52.303Z,5.08
2023-01-17T23:22:24.657Z,4.86
2023-01-17T23:24:57.811Z,5.08
2023-01-17T23:27:47.244Z,5.01
2023-01-17T23:30:21.732Z,5.26
2023-01-17T23:32:54.453Z,4.99
2023-01-17T23:35:28.443Z,5.19
2023-01-17T23:38:19.428Z,5.16
2023-01-17T23:41:07.013Z,5.17
2023-01-17T23:43:38.510Z,5.02
2023-01-17T23:46:14.173Z,5.26
2023-01-17T23:48:45.319Z,5.09
2023-01-17T23:51:15.139Z,5.20
2023-01-17T23:53:45.026Z,5.30
2023-01-17T23:56:20.368Z,5.38
2023-01-17T23:58:50.759Z,5.18
